sensor_id;sensor_type;location;lat;lon;timestamp;temperature;humidity
7648;DHT22;3866;48.020;11.720;2022-12-11T00:02:09;-0.70;99.90
7648;DHT22;3866;48.020;11.720;2022-12-11T00:04:35;-0.70;99.90
7648;DHT22;3866;48.020;11.720;2022-12-11T00:07:04;-0.70;99.90
7648;DHT22;3866;48.020;11.720;2022-12-11T00:09:31;-0.70;99.90
7648;DHT22;3866;48.020;11.720;2022-12-11T00:11:58;-0.70;99.90
7648;DHT22;3866;48.020;11.720;2022-12-11T00:14:26;-0.80;99.90
7648;DHT22;3866;48.020;11.720;2022-12-11T00:16:55;-0.70;99.90
7648;DHT22;3866;48.020;11.720;2022-12-11T00:19:22;-0.80;99.90
7648;DHT22;3866;48.020;11.720;2022-12-11T00:21:49;-0.80;99.90
7648;DHT22;3866;48.020;11.720;2022-12-11T00:24:17;-0.90;99.90
7648;DHT22;3866;48.020;11.720;2022-12-11T00:26:44;-0.90;99.90
7648;DHT22;3866;48.020;11.720;2022-12-11T00:29:11;-0.80;99.90
7648;DHT22;3866;48.020;11.720;2022-12-11T00:31:40;-0.80;99.90
7648;DHT22;3866;48.020;11.720;2022-12-11T00:34:07;-0.60;99.90
7648;DHT22;3866;48.020;11.720;2022-12-11T00:36:34;-0.70;99.90
7648;DHT22;3866;48.020;11.720;2022-12-11T00:39:02;-0.70;99.90
7648;DHT22;3866;48.020;11.720;2022-12-11T00:41:30;-0.80;99.90
7648;DHT22;3866;48.020;11.720;2022-12-11T00:43:58;-0.80;99.90
7648;DHT22;3866;48.020;11.720;2022-12-11T00:46:25;-0.80;99.90
7648;DHT22;3866;48.020;11.720;2022-12-11T00:48:52;-0.80;99.90
7648;DHT22;3866;48.020;11.720;2022-12-11T00:51:19;-0.90;99.90
7648;DHT22;3866;48.020;11.720;2022-12-11T00:53:46;-0.90;99.90
7648;DHT22;3866;48.020;11.720;2022-12-11T00:56:15;-0.90;99.90
7648;DHT22;3866;48.020;11.720;2022-12-11T00:58:43;-1.00;99.90
7648;DHT22;3866;48.020;11.720;2022-12-11T01:01:13;-1.00;99.90
7648;DHT22;3866;48.020;11.720;2022-12-11T01:03:41;-1.00;99.90
7648;DHT22;3866;48.020;11.720;2022-12-11T01:06:13;-1.00;99.90
7648;DHT22;3866;48.020;11.720;2022-12-11T01:08:40;-1.00;99.90
7648;DHT22;3866;48.020;11.720;2022-12-11T01:11:09;-0.90;99.90
7648;DHT22;3866;48.020;11.720;2022-12-11T01:13:35;-1.00;99.90
7648;DHT22;3866;48.020;11.720;2022-12-11T01:16:07;-0.90;99.90
7648;DHT22;3866;48.020;11.720;2022-12-11T01:18:35;-0.90;99.90
7648;DHT22;3866;48.020;11.720;2022-12-11T01:21:05;-1.00;99.90
7648;DHT22;3866;48.020;11.720;2022-12-11T01:23:32;-1.00;99.90
7648;DHT22;3866;48.020;11.720;2022-12-11T01:26:04;-1.10;99.90
7648;DHT22;3866;48.020;11.720;2022-12-11T01:28:31;-1.10;99.90
7648;DHT22;3866;48.020;11.720;2022-12-11T01:30:58;-0.90;99.90
7648;DHT22;3866;48.020;11.720;2022-12-11T01:33:27;-1.00;99.90
7648;DHT22;3866;48.020;11.720;2022-12-11T01:35:53;-1.00;99.90
7648;DHT22;3866;48.020;11.720;2022-12-11T01:38:20;-1.00;99.90
7648;DHT22;3866;48.020;11.720;2022-12-11T01:40:49;-1.00;99.90
7648;DHT22;3866;48.020;11.720;2022-12-11T01:43:17;-1.10;99.90
7648;DHT22;3866;48.020;11.720;2022-12-11T01:45:44;-1.10;99.90
7648;DHT22;3866;48.020;11.720;2022-12-11T01:48:14;-1.30;99.90
7648;DHT22;3866;48.020;11.720;2022-12-11T01:50:46;-1.20;99.90
7648;DHT22;3866;48.020;11.720;2022-12-11T01:53:17;-1.20;99.90
7648;DHT22;3866;48.020;11.720;2022-12-11T01:55:46;-1.20;99.90
7648;DHT22;3866;48.020;11.720;2022-12-11T01:58:14;-1.20;99.90
7648;DHT22;3866;48.020;11.720;2022-12-11T02:00:41;-1.20;99.90
7648;DHT22;3866;48.020;11.720;2022-12-11T02:03:08;-1.20;99.90
7648;DHT22;3866;48.020;11.720;2022-12-11T02:05:36;-1.20;99.90
7648;DHT22;3866;48.020;11.720;2022-12-11T02:08:06;-1.20;99.90
7648;DHT22;3866;48.020;11.720;2022-12-11T02:10:43;-1.20;99.90
7648;DHT22;3866;48.020;11.720;2022-12-11T02:13:18;-1.30;99.90
7648;DHT22;3866;48.020;11.720;2022-12-11T02:15:49;-1.30;99.90
7648;DHT22;3866;48.020;11.720;2022-12-11T02:18:22;-1.20;99.90
7648;DHT22;3866;48.020;11.720;2022-12-11T02:20:55;-1.20;99.90
7648;DHT22;3866;48.020;11.720;2022-12-11T02:24:05;-1.30;99.90
7648;DHT22;3866;48.020;11.720;2022-12-11T02:27:02;-1.20;99.90
7648;DHT22;3866;48.020;11.720;2022-12-11T02:29:37;-1.10;99.90
7648;DHT22;3866;48.020;11.720;2022-12-11T02:32:09;-1.40;99.90
7648;DHT22;3866;48.020;11.720;2022-12-11T02:34:39;-1.20;99.90
7648;DHT22;3866;48.020;11.720;2022-12-11T02:37:11;-1.10;99.90
7648;DHT22;3866;48.020;11.720;2022-12-11T02:39:41;-1.20;99.90
7648;DHT22;3866;48.020;11.720;2022-12-11T02:42:10;-1.30;99.90
7648;DHT22;3866;48.020;11.720;2022-12-11T02:44:40;-1.10;99.90
7648;DHT22;3866;48.020;11.720;2022-12-11T02:47:11;-1.30;99.90
7648;DHT22;3866;48.020;11.720;2022-12-11T02:49:39;-1.40;99.90
7648;DHT22;3866;48.020;11.720;2022-12-11T02:52:11;-1.40;99.90
7648;DHT22;3866;48.020;11.720;2022-12-11T02:54:40;-1.40;99.90
7648;DHT22;3866;48.020;11.720;2022-12-11T02:57:12;-1.30;99.90
7648;DHT22;3866;48.020;11.720;2022-12-11T02:59:43;-1.40;99.90
7648;DHT22;3866;48.020;11.720;2022-12-11T03:02:11;-1.30;99.90
7648;DHT22;3866;48.020;11.720;2022-12-11T03:04:39;-1.30;99.90
7648;DHT22;3866;48.020;11.720;2022-12-11T03:07:08;-1.30;99.90
7648;DHT22;3866;48.020;11.720;2022-12-11T03:09:38;-1.20;99.90
7648;DHT22;3866;48.020;11.720;2022-12-11T03:12:05;-1.20;99.90
7648;DHT22;3866;48.020;11.720;2022-12-11T03:14:33;-1.20;99.90
7648;DHT22;3866;48.020;11.720;2022-12-11T03:17:06;-1.30;99.90
7648;DHT22;3866;48.020;11.720;2022-12-11T03:19:35;-1.40;99.90
7648;DHT22;3866;48.020;11.720;2022-12-11T03:22:08;-1.40;99.90
7648;DHT22;3866;48.020;11.720;2022-12-11T03:24:38;-1.30;99.90
7648;DHT22;3866;48.020;11.720;2022-12-11T03:27:14;-1.40;99.90
7648;DHT22;3866;48.020;11.720;2022-12-11T03:29:47;-1.50;99.90
7648;DHT22;3866;48.020;11.720;2022-12-11T03:32:20;-1.40;99.90
7648;DHT22;3866;48.020;11.720;2022-12-11T03:34:53;-1.40;99.90
7648;DHT22;3866;48.020;11.720;2022-12-11T03:37:22;-1.40;99.90
7648;DHT22;3866;48.020;11.720;2022-12-11T03:39:52;-1.20;99.90
7648;DHT22;3866;48.020;11.720;2022-12-11T03:42:21;-1.20;99.90
7648;DHT22;3866;48.020;11.720;2022-12-11T03:44:49;-1.20;99.90
7648;DHT22;3866;48.020;11.720;2022-12-11T03:47:21;-1.40;99.90
7648;DHT22;3866;48.020;11.720;2022-12-11T03:49:51;-1.50;99.90
7648;DHT22;3866;48.020;11.720;2022-12-11T03:52:19;-1.40;99.90
7648;DHT22;3866;48.020;11.720;2022-12-11T03:54:48;-1.40;99.90
7648;DHT22;3866;48.020;11.720;2022-12-11T03:57:20;-1.40;99.90
7648;DHT22;3866;48.020;11.720;2022-12-11T03:59:49;-1.40;99.90
7648;DHT22;3866;48.020;11.720;2022-12-11T04:02:16;-1.50;99.90
7648;DHT22;3866;48.020;11.720;2022-12-11T04:04:44;-1.50;99.90
7648;DHT22;3866;48.020;11.720;2022-12-11T04:07:11;-1.40;99.90
7648;DHT22;3866;48.020;11.720;2022-12-11T04:09:38;-1.40;99.90
7648;DHT22;3866;48.020;11.720;2022-12-11T04:12:05;-1.40;99.90
7648;DHT22;3866;48.020;11.720;2022-12-11T04:14:32;-1.50;99.90
7648;DHT22;3866;48.020;11.720;2022-12-11T04:17:16;-1.40;99.90
7648;DHT22;3866;48.020;11.720;2022-12-11T04:19:58;-1.50;99.90
7648;DHT22;3866;48.020;11.720;2022-12-11T04:22:43;-1.40;99.90
7648;DHT22;3866;48.020;11.720;2022-12-11T04:25:27;-1.40;99.90
7648;DHT22;3866;48.020;11.720;2022-12-11T04:27:54;-1.30;99.90
7648;DHT22;3866;48.020;11.720;2022-12-11T04:30:23;-1.40;99.90
7648;DHT22;3866;48.020;11.720;2022-12-11T04:32:51;-1.60;99.90
7648;DHT22;3866;48.020;11.720;2022-12-11T04:35:20;-1.50;99.90
7648;DHT22;3866;48.020;11.720;2022-12-11T04:37:47;-1.50;99.90
7648;DHT22;3866;48.020;11.720;2022-12-11T04:40:17;-1.50;99.90
7648;DHT22;3866;48.020;11.720;2022-12-11T04:42:44;-1.40;99.90
7648;DHT22;3866;48.020;11.720;2022-12-11T04:45:11;-1.60;99.90
7648;DHT22;3866;48.020;11.720;2022-12-11T04:47:39;-1.60;99.90
7648;DHT22;3866;48.020;11.720;2022-12-11T04:50:09;-1.60;99.90
7648;DHT22;3866;48.020;11.720;2022-12-11T04:52:38;-1.50;99.90
7648;DHT22;3866;48.020;11.720;2022-12-11T04:55:06;-1.50;99.90
7648;DHT22;3866;48.020;11.720;2022-12-11T04:57:33;-1.60;99.90
7648;DHT22;3866;48.020;11.720;2022-12-11T05:00:00;-1.60;99.90
7648;DHT22;3866;48.020;11.720;2022-12-11T05:02:29;-1.70;99.90
7648;DHT22;3866;48.020;11.720;2022-12-11T05:04:56;-1.60;99.90
7648;DHT22;3866;48.020;11.720;2022-12-11T05:07:23;-1.60;99.90
7648;DHT22;3866;48.020;11.720;2022-12-11T05:09:51;-1.60;99.90
7648;DHT22;3866;48.020;11.720;2022-12-11T05:12:18;-1.60;99.90
7648;DHT22;3866;48.020;11.720;2022-12-11T05:14:50;-1.70;99.90
7648;DHT22;3866;48.020;11.720;2022-12-11T05:17:17;-1.60;99.90
7648;DHT22;3866;48.020;11.720;2022-12-11T05:19:46;-1.70;99.90
7648;DHT22;3866;48.020;11.720;2022-12-11T05:22:13;-1.60;99.90
7648;DHT22;3866;48.020;11.720;2022-12-11T05:24:40;-1.60;99.90
7648;DHT22;3866;48.020;11.720;2022-12-11T05:27:09;-1.80;99.90
7648;DHT22;3866;48.020;11.720;2022-12-11T05:29:36;-1.80;99.90
7648;DHT22;3866;48.020;11.720;2022-12-11T05:32:04;-1.90;99.90
7648;DHT22;3866;48.020;11.720;2022-12-11T05:34:31;-1.90;99.90
7648;DHT22;3866;48.020;11.720;2022-12-11T05:36:58;-1.90;99.90
7648;DHT22;3866;48.020;11.720;2022-12-11T05:39:25;-1.80;99.90
7648;DHT22;3866;48.020;11.720;2022-12-11T05:41:52;-1.70;99.90
7648;DHT22;3866;48.020;11.720;2022-12-11T05:44:20;-1.80;99.90
7648;DHT22;3866;48.020;11.720;2022-12-11T05:46:47;-1.80;99.90
7648;DHT22;3866;48.020;11.720;2022-12-11T05:49:15;-1.80;99.90
7648;DHT22;3866;48.020;11.720;2022-12-11T05:51:42;-1.80;99.90
7648;DHT22;3866;48.020;11.720;2022-12-11T05:54:09;-1.80;99.90
7648;DHT22;3866;48.020;11.720;2022-12-11T05:56:36;-1.70;99.90
7648;DHT22;3866;48.020;11.720;2022-12-11T05:59:04;-1.90;99.90
7648;DHT22;3866;48.020;11.720;2022-12-11T06:01:35;-1.80;99.90
7648;DHT22;3866;48.020;11.720;2022-12-11T06:04:03;-1.80;99.90
7648;DHT22;3866;48.020;11.720;2022-12-11T06:06:30;-1.80;99.90
7648;DHT22;3866;48.020;11.720;2022-12-11T06:08:58;-1.90;99.90
7648;DHT22;3866;48.020;11.720;2022-12-11T06:11:27;-2.00;99.90
7648;DHT22;3866;48.020;11.720;2022-12-11T06:13:55;-2.10;99.90
7648;DHT22;3866;48.020;11.720;2022-12-11T06:16:22;-2.10;99.90
7648;DHT22;3866;48.020;11.720;2022-12-11T06:18:50;-2.10;99.90
7648;DHT22;3866;48.020;11.720;2022-12-11T06:21:19;-2.10;99.90
7648;DHT22;3866;48.020;11.720;2022-12-11T06:23:48;-1.90;99.90
7648;DHT22;3866;48.020;11.720;2022-12-11T06:26:16;-1.90;99.90
7648;DHT22;3866;48.020;11.720;2022-12-11T06:28:44;-1.90;99.90
7648;DHT22;3866;48.020;11.720;2022-12-11T06:31:11;-1.80;99.90
7648;DHT22;3866;48.020;11.720;2022-12-11T06:33:38;-1.80;99.90
7648;DHT22;3866;48.020;11.720;2022-12-11T06:36:09;-1.70;99.90
7648;DHT22;3866;48.020;11.720;2022-12-11T06:38:37;-1.70;99.90
7648;DHT22;3866;48.020;11.720;2022-12-11T06:41:05;-1.70;99.90
7648;DHT22;3866;48.020;11.720;2022-12-11T06:43:33;-1.80;99.90
7648;DHT22;3866;48.020;11.720;2022-12-11T06:46:02;-1.90;99.90
7648;DHT22;3866;48.020;11.720;2022-12-11T06:48:30;-1.80;99.90
7648;DHT22;3866;48.020;11.720;2022-12-11T06:50:57;-1.80;99.90
7648;DHT22;3866;48.020;11.720;2022-12-11T06:53:25;-1.90;99.90
7648;DHT22;3866;48.020;11.720;2022-12-11T06:55:52;-1.90;99.90
7648;DHT22;3866;48.020;11.720;2022-12-11T06:58:19;-1.80;99.90
7648;DHT22;3866;48.020;11.720;2022-12-11T07:00:46;-1.80;99.90
7648;DHT22;3866;48.020;11.720;2022-12-11T07:03:13;-1.80;99.90
7648;DHT22;3866;48.020;11.720;2022-12-11T07:05:39;-1.80;99.90
7648;DHT22;3866;48.020;11.720;2022-12-11T07:08:06;-1.70;99.90
7648;DHT22;3866;48.020;11.720;2022-12-11T07:10:35;-1.70;99.90
7648;DHT22;3866;48.020;11.720;2022-12-11T07:13:02;-1.80;99.90
7648;DHT22;3866;48.020;11.720;2022-12-11T07:15:29;-1.80;99.90
7648;DHT22;3866;48.020;11.720;2022-12-11T07:17:55;-1.80;99.90
7648;DHT22;3866;48.020;11.720;2022-12-11T07:20:22;-1.70;99.90
7648;DHT22;3866;48.020;11.720;2022-12-11T07:22:49;-1.80;99.90
7648;DHT22;3866;48.020;11.720;2022-12-11T07:25:16;-1.80;99.90
7648;DHT22;3866;48.020;11.720;2022-12-11T07:27:45;-1.80;99.90
7648;DHT22;3866;48.020;11.720;2022-12-11T07:30:12;-1.90;99.90
7648;DHT22;3866;48.020;11.720;2022-12-11T07:32:40;-1.70;99.90
7648;DHT22;3866;48.020;11.720;2022-12-11T07:35:07;-1.90;99.90
7648;DHT22;3866;48.020;11.720;2022-12-11T07:37:35;-1.70;99.90
7648;DHT22;3866;48.020;11.720;2022-12-11T07:40:03;-1.80;99.90
7648;DHT22;3866;48.020;11.720;2022-12-11T07:42:30;-1.70;99.90
7648;DHT22;3866;48.020;11.720;2022-12-11T07:44:58;-1.80;99.90
7648;DHT22;3866;48.020;11.720;2022-12-11T07:47:25;-1.70;99.90
7648;DHT22;3866;48.020;11.720;2022-12-11T07:49:52;-1.80;99.90
7648;DHT22;3866;48.020;11.720;2022-12-11T07:52:19;-1.70;99.90
7648;DHT22;3866;48.020;11.720;2022-12-11T07:54:46;-1.70;99.90
7648;DHT22;3866;48.020;11.720;2022-12-11T07:57:13;-1.70;99.90
7648;DHT22;3866;48.020;11.720;2022-12-11T07:59:39;-1.60;99.90
7648;DHT22;3866;48.020;11.720;2022-12-11T08:02:09;-1.60;99.90
7648;DHT22;3866;48.020;11.720;2022-12-11T08:04:37;-1.60;99.90
7648;DHT22;3866;48.020;11.720;2022-12-11T08:07:04;-1.70;99.90
7648;DHT22;3866;48.020;11.720;2022-12-11T08:09:31;-1.70;99.90
7648;DHT22;3866;48.020;11.720;2022-12-11T08:11:58;-1.70;99.90
7648;DHT22;3866;48.020;11.720;2022-12-11T08:14:25;-1.60;99.90
7648;DHT22;3866;48.020;11.720;2022-12-11T08:16:53;-1.40;99.90
7648;DHT22;3866;48.020;11.720;2022-12-11T08:19:23;-1.70;99.90
7648;DHT22;3866;48.020;11.720;2022-12-11T08:21:50;-1.80;99.90
7648;DHT22;3866;48.020;11.720;2022-12-11T08:24:17;-1.70;99.90
7648;DHT22;3866;48.020;11.720;2022-12-11T08:26:45;-1.60;99.90
7648;DHT22;3866;48.020;11.720;2022-12-11T08:29:12;-1.80;99.90
7648;DHT22;3866;48.020;11.720;2022-12-11T08:31:40;-1.80;99.90
7648;DHT22;3866;48.020;11.720;2022-12-11T08:34:07;-1.70;99.90
7648;DHT22;3866;48.020;11.720;2022-12-11T08:36:39;-1.70;99.90
7648;DHT22;3866;48.020;11.720;2022-12-11T08:39:06;-1.60;99.90
7648;DHT22;3866;48.020;11.720;2022-12-11T08:41:33;-1.50;99.90
7648;DHT22;3866;48.020;11.720;2022-12-11T08:44:00;-1.50;99.90
7648;DHT22;3866;48.020;11.720;2022-12-11T08:46:29;-1.60;99.90
7648;DHT22;3866;48.020;11.720;2022-12-11T08:48:57;-1.50;99.90
7648;DHT22;3866;48.020;11.720;2022-12-11T08:51:25;-1.50;99.90
7648;DHT22;3866;48.020;11.720;2022-12-11T08:53:56;-1.40;99.90
7648;DHT22;3866;48.020;11.720;2022-12-11T08:56:23;-1.30;99.90
7648;DHT22;3866;48.020;11.720;2022-12-11T08:58:50;-1.00;99.90
7648;DHT22;3866;48.020;11.720;2022-12-11T09:01:19;-1.20;99.90
7648;DHT22;3866;48.020;11.720;2022-12-11T09:03:47;-1.20;99.90
7648;DHT22;3866;48.020;11.720;2022-12-11T09:06:16;-1.30;99.90
7648;DHT22;3866;48.020;11.720;2022-12-11T09:08:45;-1.40;99.90
7648;DHT22;3866;48.020;11.720;2022-12-11T09:11:17;-1.30;99.90
7648;DHT22;3866;48.020;11.720;2022-12-11T09:13:44;-1.40;99.90
7648;DHT22;3866;48.020;11.720;2022-12-11T09:16:13;-1.50;99.90
7648;DHT22;3866;48.020;11.720;2022-12-11T09:18:41;-1.30;99.90
7648;DHT22;3866;48.020;11.720;2022-12-11T09:21:10;-1.20;99.90
7648;DHT22;3866;48.020;11.720;2022-12-11T09:23:38;-1.30;99.90
7648;DHT22;3866;48.020;11.720;2022-12-11T09:26:05;-1.20;99.90
7648;DHT22;3866;48.020;11.720;2022-12-11T09:28:33;-1.20;99.90
7648;DHT22;3866;48.020;11.720;2022-12-11T09:31:00;-1.10;99.90
7648;DHT22;3866;48.020;11.720;2022-12-11T09:33:27;-1.00;99.90
7648;DHT22;3866;48.020;11.720;2022-12-11T09:35:57;-0.80;99.90
7648;DHT22;3866;48.020;11.720;2022-12-11T09:38:25;-0.60;99.90
7648;DHT22;3866;48.020;11.720;2022-12-11T09:40:52;-0.80;99.90
7648;DHT22;3866;48.020;11.720;2022-12-11T09:43:29;-0.70;99.90
7648;DHT22;3866;48.020;11.720;2022-12-11T09:46:03;-0.60;99.90
7648;DHT22;3866;48.020;11.720;2022-12-11T09:48:32;-0.50;99.90
7648;DHT22;3866;48.020;11.720;2022-12-11T09:51:03;-0.50;99.90
7648;DHT22;3866;48.020;11.720;2022-12-11T09:53:34;-0.50;99.90
7648;DHT22;3866;48.020;11.720;2022-12-11T09:56:09;-0.40;99.90
7648;DHT22;3866;48.020;11.720;2022-12-11T09:58:52;-0.50;99.90
7648;DHT22;3866;48.020;11.720;2022-12-11T10:01:32;-0.50;99.90
7648;DHT22;3866;48.020;11.720;2022-12-11T10:04:19;-0.60;99.90
7648;DHT22;3866;48.020;11.720;2022-12-11T10:07:00;-0.50;99.90
7648;DHT22;3866;48.020;11.720;2022-12-11T10:09:34;-0.80;99.90
7648;DHT22;3866;48.020;11.720;2022-12-11T10:12:13;-0.70;99.90
7648;DHT22;3866;48.020;11.720;2022-12-11T10:14:51;-0.60;99.90
7648;DHT22;3866;48.020;11.720;2022-12-11T10:17:27;-0.50;99.90
7648;DHT22;3866;48.020;11.720;2022-12-11T10:19:56;-0.40;99.90
7648;DHT22;3866;48.020;11.720;2022-12-11T10:22:27;-0.30;99.90
7648;DHT22;3866;48.020;11.720;2022-12-11T10:24:57;-0.30;99.90
7648;DHT22;3866;48.020;11.720;2022-12-11T10:27:27;-0.40;99.90
7648;DHT22;3866;48.020;11.720;2022-12-11T10:30:01;-0.30;99.90
7648;DHT22;3866;48.020;11.720;2022-12-11T10:32:38;-0.20;99.90
7648;DHT22;3866;48.020;11.720;2022-12-11T10:35:16;-0.20;99.90
7648;DHT22;3866;48.020;11.720;2022-12-11T10:37:43;0.00;99.90
7648;DHT22;3866;48.020;11.720;2022-12-11T10:40:11;0.10;99.90
7648;DHT22;3866;48.020;11.720;2022-12-11T10:42:38;0.00;99.90
7648;DHT22;3866;48.020;11.720;2022-12-11T10:45:06;-0.10;99.90
7648;DHT22;3866;48.020;11.720;2022-12-11T10:47:34;-0.10;99.90
7648;DHT22;3866;48.020;11.720;2022-12-11T10:50:03;-0.30;99.90
7648;DHT22;3866;48.020;11.720;2022-12-11T10:52:32;-0.30;99.90
7648;DHT22;3866;48.020;11.720;2022-12-11T10:55:03;-0.40;99.90
7648;DHT22;3866;48.020;11.720;2022-12-11T10:57:34;-0.10;99.90
7648;DHT22;3866;48.020;11.720;2022-12-11T11:00:03;-0.30;99.90
7648;DHT22;3866;48.020;11.720;2022-12-11T11:02:33;-0.30;99.90
7648;DHT22;3866;48.020;11.720;2022-12-11T11:05:14;-0.40;99.90
7648;DHT22;3866;48.020;11.720;2022-12-11T11:07:41;-0.70;99.90
7648;DHT22;3866;48.020;11.720;2022-12-11T11:10:15;-0.50;99.90
7648;DHT22;3866;48.020;11.720;2022-12-11T11:12:43;-0.20;99.90
7648;DHT22;3866;48.020;11.720;2022-12-11T11:15:12;-0.10;99.90
7648;DHT22;3866;48.020;11.720;2022-12-11T11:17:43;0.10;99.90
7648;DHT22;3866;48.020;11.720;2022-12-11T11:20:16;0.20;99.90
7648;DHT22;3866;48.020;11.720;2022-12-11T11:22:46;0.00;99.90
7648;DHT22;3866;48.020;11.720;2022-12-11T11:25:17;-0.10;99.90
7648;DHT22;3866;48.020;11.720;2022-12-11T11:27:49;-0.30;99.90
7648;DHT22;3866;48.020;11.720;2022-12-11T11:30:20;-0.30;99.90
7648;DHT22;3866;48.020;11.720;2022-12-11T11:32:50;-0.60;99.90
7648;DHT22;3866;48.020;11.720;2022-12-11T11:35:21;-0.30;99.90
7648;DHT22;3866;48.020;11.720;2022-12-11T11:38:00;-0.20;99.90
7648;DHT22;3866;48.020;11.720;2022-12-11T11:40:29;0.00;99.90
7648;DHT22;3866;48.020;11.720;2022-12-11T11:43:04;0.00;99.90
7648;DHT22;3866;48.020;11.720;2022-12-11T11:45:38;-0.10;99.90
7648;DHT22;3866;48.020;11.720;2022-12-11T11:48:15;0.00;99.90
7648;DHT22;3866;48.020;11.720;2022-12-11T11:50:49;-0.30;99.90
7648;DHT22;3866;48.020;11.720;2022-12-11T11:53:21;-0.20;99.90
7648;DHT22;3866;48.020;11.720;2022-12-11T11:55:57;-0.30;99.90
7648;DHT22;3866;48.020;11.720;2022-12-11T11:58:32;-0.20;99.90
7648;DHT22;3866;48.020;11.720;2022-12-11T12:01:03;-0.30;99.90
7648;DHT22;3866;48.020;11.720;2022-12-11T12:03:30;-0.30;99.90
7648;DHT22;3866;48.020;11.720;2022-12-11T12:06:06;-0.30;99.90
7648;DHT22;3866;48.020;11.720;2022-12-11T12:08:41;-0.20;99.90
7648;DHT22;3866;48.020;11.720;2022-12-11T12:11:17;-0.30;99.90
7648;DHT22;3866;48.020;11.720;2022-12-11T12:13:54;-0.30;99.90
7648;DHT22;3866;48.020;11.720;2022-12-11T12:16:29;-0.40;99.90
7648;DHT22;3866;48.020;11.720;2022-12-11T12:19:02;-0.80;99.90
7648;DHT22;3866;48.020;11.720;2022-12-11T12:21:36;-0.70;99.90
7648;DHT22;3866;48.020;11.720;2022-12-11T12:24:14;-0.70;99.90
7648;DHT22;3866;48.020;11.720;2022-12-11T12:26:45;-0.50;99.90
7648;DHT22;3866;48.020;11.720;2022-12-11T12:29:21;-0.50;99.90
7648;DHT22;3866;48.020;11.720;2022-12-11T12:31:59;-0.50;99.90
7648;DHT22;3866;48.020;11.720;2022-12-11T12:34:41;-0.60;99.90
7648;DHT22;3866;48.020;11.720;2022-12-11T12:37:21;-0.50;99.90
7648;DHT22;3866;48.020;11.720;2022-12-11T12:40:00;-0.40;99.90
7648;DHT22;3866;48.020;11.720;2022-12-11T12:42:37;-0.60;99.90
7648;DHT22;3866;48.020;11.720;2022-12-11T12:45:16;-0.50;99.90
7648;DHT22;3866;48.020;11.720;2022-12-11T12:47:50;-0.60;99.90
7648;DHT22;3866;48.020;11.720;2022-12-11T12:50:19;-0.50;99.90
7648;DHT22;3866;48.020;11.720;2022-12-11T12:52:48;-0.60;99.90
7648;DHT22;3866;48.020;11.720;2022-12-11T12:55:21;-0.70;99.90
7648;DHT22;3866;48.020;11.720;2022-12-11T12:57:50;-0.70;99.90
7648;DHT22;3866;48.020;11.720;2022-12-11T13:00:30;-0.80;99.90
7648;DHT22;3866;48.020;11.720;2022-12-11T13:02:58;-1.00;99.90
7648;DHT22;3866;48.020;11.720;2022-12-11T13:05:29;-0.90;99.90
7648;DHT22;3866;48.020;11.720;2022-12-11T13:08:01;-1.00;99.90
7648;DHT22;3866;48.020;11.720;2022-12-11T13:10:30;-0.80;99.90
7648;DHT22;3866;48.020;11.720;2022-12-11T13:12:59;-0.50;99.90
7648;DHT22;3866;48.020;11.720;2022-12-11T13:15:32;-0.20;99.90
7648;DHT22;3866;48.020;11.720;2022-12-11T13:18:02;0.10;99.90
7648;DHT22;3866;48.020;11.720;2022-12-11T13:20:32;0.00;99.90
7648;DHT22;3866;48.020;11.720;2022-12-11T13:23:16;-0.10;99.90
7648;DHT22;3866;48.020;11.720;2022-12-11T13:25:51;0.00;99.90
7648;DHT22;3866;48.020;11.720;2022-12-11T13:28:31;-0.10;99.90
7648;DHT22;3866;48.020;11.720;2022-12-11T13:31:22;-0.40;99.90
7648;DHT22;3866;48.020;11.720;2022-12-11T13:33:52;-0.40;99.90
7648;DHT22;3866;48.020;11.720;2022-12-11T13:36:30;-0.40;99.90
7648;DHT22;3866;48.020;11.720;2022-12-11T13:39:02;-0.70;99.90
7648;DHT22;3866;48.020;11.720;2022-12-11T13:41:33;-0.60;99.90
7648;DHT22;3866;48.020;11.720;2022-12-11T13:44:01;-0.60;99.90
7648;DHT22;3866;48.020;11.720;2022-12-11T13:46:31;-0.70;99.90
7648;DHT22;3866;48.020;11.720;2022-12-11T13:49:02;-0.70;99.90
7648;DHT22;3866;48.020;11.720;2022-12-11T13:51:32;-0.80;99.90
7648;DHT22;3866;48.020;11.720;2022-12-11T13:54:13;-0.80;99.90
7648;DHT22;3866;48.020;11.720;2022-12-11T13:56:56;-0.70;99.90
7648;DHT22;3866;48.020;11.720;2022-12-11T13:59:26;-1.00;99.90
7648;DHT22;3866;48.020;11.720;2022-12-11T14:01:55;-1.00;99.90
7648;DHT22;3866;48.020;11.720;2022-12-11T14:04:25;-0.90;99.90
7648;DHT22;3866;48.020;11.720;2022-12-11T14:06:54;-0.90;99.90
7648;DHT22;3866;48.020;11.720;2022-12-11T14:09:24;-1.00;99.90
7648;DHT22;3866;48.020;11.720;2022-12-11T14:11:53;-1.00;99.90
7648;DHT22;3866;48.020;11.720;2022-12-11T14:14:25;-1.00;99.90
7648;DHT22;3866;48.020;11.720;2022-12-11T14:16:54;-1.00;99.90
7648;DHT22;3866;48.020;11.720;2022-12-11T14:19:22;-0.90;99.90
7648;DHT22;3866;48.020;11.720;2022-12-11T14:21:59;-0.90;99.90
7648;DHT22;3866;48.020;11.720;2022-12-11T14:24:29;-1.00;99.90
7648;DHT22;3866;48.020;11.720;2022-12-11T14:26:56;-1.10;99.90
7648;DHT22;3866;48.020;11.720;2022-12-11T14:29:26;-1.20;99.90
7648;DHT22;3866;48.020;11.720;2022-12-11T14:31:53;-1.20;99.90
7648;DHT22;3866;48.020;11.720;2022-12-11T14:34:23;-1.30;99.90
7648;DHT22;3866;48.020;11.720;2022-12-11T14:36:52;-1.30;99.90
7648;DHT22;3866;48.020;11.720;2022-12-11T14:39:23;-1.30;99.90
7648;DHT22;3866;48.020;11.720;2022-12-11T14:41:58;-1.20;99.90
7648;DHT22;3866;48.020;11.720;2022-12-11T14:44:29;-1.20;99.90
7648;DHT22;3866;48.020;11.720;2022-12-11T14:47:01;-1.30;99.90
7648;DHT22;3866;48.020;11.720;2022-12-11T14:49:36;-1.40;99.90
7648;DHT22;3866;48.020;11.720;2022-12-11T14:52:05;-1.40;99.90
7648;DHT22;3866;48.020;11.720;2022-12-11T14:54:40;-1.30;99.90
7648;DHT22;3866;48.020;11.720;2022-12-11T14:57:16;-1.40;99.90
7648;DHT22;3866;48.020;11.720;2022-12-11T14:59:46;-1.40;99.90
7648;DHT22;3866;48.020;11.720;2022-12-11T15:02:26;-1.40;99.90
7648;DHT22;3866;48.020;11.720;2022-12-11T15:05:15;-1.40;99.90
7648;DHT22;3866;48.020;11.720;2022-12-11T15:07:53;-1.40;99.90
7648;DHT22;3866;48.020;11.720;2022-12-11T15:10:24;-1.50;99.90
7648;DHT22;3866;48.020;11.720;2022-12-11T15:12:53;-1.60;99.90
7648;DHT22;3866;48.020;11.720;2022-12-11T15:15:20;-1.50;99.90
7648;DHT22;3866;48.020;11.720;2022-12-11T15:17:48;-1.60;99.90
7648;DHT22;3866;48.020;11.720;2022-12-11T15:20:22;-1.60;99.90
7648;DHT22;3866;48.020;11.720;2022-12-11T15:22:51;-1.60;99.90
7648;DHT22;3866;48.020;11.720;2022-12-11T15:25:20;-1.70;99.90
7648;DHT22;3866;48.020;11.720;2022-12-11T15:27:49;-1.70;99.90
7648;DHT22;3866;48.020;11.720;2022-12-11T15:30:27;-1.70;99.90
7648;DHT22;3866;48.020;11.720;2022-12-11T15:33:16;-1.80;99.90
7648;DHT22;3866;48.020;11.720;2022-12-11T15:35:53;-1.90;99.90
7648;DHT22;3866;48.020;11.720;2022-12-11T15:38:27;-1.90;99.90
7648;DHT22;3866;48.020;11.720;2022-12-11T15:40:55;-2.00;99.90
7648;DHT22;3866;48.020;11.720;2022-12-11T15:43:22;-2.00;99.90
7648;DHT22;3866;48.020;11.720;2022-12-11T15:45:51;-2.10;99.90
7648;DHT22;3866;48.020;11.720;2022-12-11T15:48:17;-2.20;99.90
7648;DHT22;3866;48.020;11.720;2022-12-11T15:50:44;-2.20;99.90
7648;DHT22;3866;48.020;11.720;2022-12-11T15:53:11;-2.20;99.90
7648;DHT22;3866;48.020;11.720;2022-12-11T15:55:38;-2.30;99.90
7648;DHT22;3866;48.020;11.720;2022-12-11T15:58:07;-2.30;99.90
7648;DHT22;3866;48.020;11.720;2022-12-11T16:00:34;-2.20;99.90
7648;DHT22;3866;48.020;11.720;2022-12-11T16:03:03;-2.20;99.90
7648;DHT22;3866;48.020;11.720;2022-12-11T16:05:30;-2.30;99.90
7648;DHT22;3866;48.020;11.720;2022-12-11T16:08:00;-2.30;99.90